createdAt,value
2022-09-19T00:01:08.675Z,10.60
2022-09-19T00:03:36.805Z,10.60
2022-09-19T00:06:04.394Z,10.60
2022-09-19T00:08:31.364Z,10.70
2022-09-19T00:11:02.394Z,10.70
2022-09-19T00:13:30.489Z,10.70
2022-09-19T00:15:57.974Z,10.60
2022-09-19T00:18:24.984Z,10.70
2022-09-19T00:20:51.773Z,10.60
2022-09-19T00:23:37.106Z,10.60
2022-09-19T00:26:07.460Z,10.60
2022-09-19T00:28:35.321Z,10.60
2022-09-19T00:31:02.985Z,10.60
2022-09-19T00:33:32.475Z,10.50
2022-09-19T00:36:00.793Z,10.50
2022-09-19T00:38:29.408Z,10.60
2022-09-19T00:40:57.788Z,10.60
2022-09-19T00:43:43.226Z,10.70
2022-09-19T00:46:10.040Z,10.70
2022-09-19T00:48:42.807Z,10.70
2022-09-19T00:51:32.510Z,10.60
2022-09-19T00:54:03.338Z,10.60
2022-09-19T00:56:31.145Z,10.60
2022-09-19T00:59:00.137Z,10.70
2022-09-19T01:01:27.272Z,10.60
2022-09-19T01:03:54.318Z,10.60
2022-09-19T01:06:52.674Z,10.60
2022-09-19T01:09:49.912Z,10.60
2022-09-19T01:12:22.901Z,10.60
2022-09-19T01:15:21.989Z,10.60
2022-09-19T01:18:01.076Z,10.50
2022-09-19T01:20:55.851Z,10.50
2022-09-19T01:24:00.151Z,10.60
2022-09-19T01:26:50.213Z,10.70
2022-09-19T01:29:22.060Z,10.70
2022-09-19T01:31:53.809Z,10.60
2022-09-19T01:34:30.381Z,10.60
2022-09-19T01:37:10.538Z,10.60
2022-09-19T01:39:40.487Z,10.70
2022-09-19T01:42:07.380Z,10.70
2022-09-19T01:44:34.244Z,10.70
2022-09-19T01:47:22.824Z,10.70
2022-09-19T01:49:49.563Z,10.70
2022-09-19T01:52:57.615Z,10.80
2022-09-19T01:55:40.754Z,10.90
2022-09-19T01:58:37.604Z,10.90
2022-09-19T02:01:31.698Z,10.80
2022-09-19T02:04:13.452Z,10.90
2022-09-19T02:06:54.971Z,10.90
2022-09-19T02:09:37.290Z,11.00
2022-09-19T02:12:07.393Z,11.00
2022-09-19T02:14:38.963Z,11.10
2022-09-19T02:17:16.936Z,11.20
2022-09-19T02:19:57.988Z,11.10
2022-09-19T02:22:36.158Z,11.20
2022-09-19T02:25:07.158Z,11.20
2022-09-19T02:27:39.495Z,11.20
2022-09-19T02:30:09.866Z,11.20
2022-09-19T02:32:38.129Z,11.20
2022-09-19T02:35:06.612Z,11.20
2022-09-19T02:37:46.152Z,11.20
2022-09-19T02:40:38.018Z,11.30
2022-09-19T02:43:24.994Z,11.20
2022-09-19T02:45:56.349Z,11.30
2022-09-19T02:48:30.899Z,11.30
2022-09-19T02:51:20.824Z,11.30
2022-09-19T02:53:54.353Z,11.30
2022-09-19T02:56:28.430Z,11.30
2022-09-19T02:59:00.191Z,11.30
2022-09-19T03:01:29.772Z,11.30
2022-09-19T03:04:16.135Z,11.30
2022-09-19T03:07:08.486Z,11.30
2022-09-19T03:09:35.278Z,11.40
2022-09-19T03:12:10.303Z,11.40
2022-09-19T03:14:37.129Z,11.40
2022-09-19T03:17:05.576Z,11.40
2022-09-19T03:19:34.131Z,11.40
2022-09-19T03:22:01.437Z,11.40
2022-09-19T03:24:28.327Z,11.30
2022-09-19T03:26:55.134Z,11.40
2022-09-19T03:29:22.083Z,11.40
2022-09-19T03:31:51.840Z,11.40
2022-09-19T03:34:20.178Z,11.50
2022-09-19T03:36:47.192Z,11.50
2022-09-19T03:39:14.068Z,11.40
2022-09-19T03:41:40.851Z,11.40
2022-09-19T03:44:08.391Z,11.50
2022-09-19T03:46:36.748Z,11.50
2022-09-19T03:49:05.054Z,11.50
2022-09-19T03:51:33.102Z,11.50
2022-09-19T03:54:00.044Z,11.50
2022-09-19T03:56:27.269Z,11.50
2022-09-19T03:58:54.097Z,11.50
2022-09-19T04:01:21.795Z,11.50
2022-09-19T04:03:50.107Z,11.50
2022-09-19T04:06:17.245Z,11.50
2022-09-19T04:08:44.083Z,11.50
2022-09-19T04:11:12.445Z,11.50
2022-09-19T04:13:39.461Z,11.50
2022-09-19T04:16:07.725Z,11.50
2022-09-19T04:18:35.368Z,11.60
2022-09-19T04:21:02.385Z,11.60
2022-09-19T04:23:29.238Z,11.60
2022-09-19T04:25:56.711Z,11.50
2022-09-19T04:28:24.166Z,11.60
2022-09-19T04:30:51.507Z,11.60
2022-09-19T04:33:19.283Z,11.60
2022-09-19T04:35:46.941Z,11.60
2022-09-19T04:38:18.362Z,11.60
2022-09-19T04:40:48.389Z,11.60
2022-09-19T04:43:19.949Z,11.60
2022-09-19T04:45:48.523Z,11.60
2022-09-19T04:48:16.797Z,11.70
2022-09-19T04:50:45.870Z,11.60
2022-09-19T04:53:14.701Z,11.70
2022-09-19T04:55:41.745Z,11.70
2022-09-19T04:58:08.547Z,11.70
2022-09-19T05:00:39.552Z,11.70
2022-09-19T05:03:15.382Z,11.70
2022-09-19T05:05:45.826Z,11.70
2022-09-19T05:08:16.203Z,11.70
2022-09-19T05:10:46.933Z,11.70
2022-09-19T05:13:15.276Z,11.70
2022-09-19T05:15:44.160Z,11.70
2022-09-19T05:18:13.669Z,11.80
2022-09-19T05:20:40.591Z,11.70
2022-09-19T05:23:07.632Z,11.80
2022-09-19T05:25:38.312Z,11.80
2022-09-19T05:28:08.710Z,11.90
2022-09-19T05:30:40.372Z,11.90
2022-09-19T05:33:08.107Z,12.00
2022-09-19T05:35:34.866Z,11.90
2022-09-19T05:38:01.670Z,12.00
2022-09-19T05:40:28.616Z,11.90
2022-09-19T05:43:01.422Z,12.00
2022-09-19T05:45:28.816Z,12.10
2022-09-19T05:48:06.447Z,12.10
2022-09-19T05:50:34.166Z,12.10
2022-09-19T05:53:19.712Z,12.20
2022-09-19T05:55:47.120Z,12.20
2022-09-19T05:58:16.320Z,12.30
2022-09-19T06:00:43.065Z,12.30
2022-09-19T06:03:12.633Z,12.30
2022-09-19T06:05:41.747Z,12.30
2022-09-19T06:08:08.549Z,12.40
2022-09-19T06:10:41.869Z,12.40
2022-09-19T06:13:13.256Z,12.50
2022-09-19T06:15:40.517Z,12.60
2022-09-19T06:18:07.846Z,12.50
2022-09-19T06:20:34.948Z,12.50
2022-09-19T06:23:03.482Z,12.40
2022-09-19T06:25:31.602Z,12.40
2022-09-19T06:28:01.771Z,12.40
2022-09-19T06:30:29.522Z,12.40
2022-09-19T06:32:56.293Z,12.50
2022-09-19T06:35:26.471Z,12.40
2022-09-19T06:38:02.449Z,12.50
2022-09-19T06:40:30.256Z,12.50
2022-09-19T06:43:00.330Z,12.50
2022-09-19T06:45:27.197Z,12.60
2022-09-19T06:47:58.494Z,12.70
2022-09-19T06:50:26.186Z,12.80
2022-09-19T06:52:53.429Z,12.70
2022-09-19T06:55:20.469Z,12.90
2022-09-19T06:57:59.369Z,12.90
2022-09-19T07:00:28.048Z,12.90
2022-09-19T07:03:01.194Z,12.80
2022-09-19T07:05:31.061Z,12.90
2022-09-19T07:07:57.834Z,12.90
2022-09-19T07:10:24.994Z,12.80
2022-09-19T07:13:00.191Z,12.80
2022-09-19T07:15:26.992Z,12.90
2022-09-19T07:18:00.010Z,12.90
2022-09-19T07:20:28.694Z,13.00
2022-09-19T07:23:10.070Z,13.10
2022-09-19T07:25:39.147Z,13.40
2022-09-19T07:28:07.542Z,13.30
2022-09-19T07:30:36.344Z,13.20
2022-09-19T07:33:06.027Z,13.20
2022-09-19T07:35:36.396Z,13.10
2022-09-19T07:38:05.219Z,13.10
2022-09-19T07:40:34.469Z,13.00
2022-09-19T07:43:06.175Z,13.00
2022-09-19T07:45:35.500Z,13.30
2022-09-19T07:48:03.632Z,13.40
2022-09-19T07:50:31.568Z,13.40
2022-09-19T07:53:05.743Z,13.40
2022-09-19T07:55:33.429Z,13.40
2022-09-19T07:58:01.270Z,13.40
2022-09-19T08:00:29.358Z,13.60
2022-09-19T08:03:11.469Z,13.80
2022-09-19T08:05:40.919Z,14.00
2022-09-19T08:08:10.983Z,14.20
2022-09-19T08:10:44.930Z,14.50
2022-09-19T08:13:16.159Z,14.60
2022-09-19T08:15:45.131Z,14.40
2022-09-19T08:18:21.031Z,14.60
2022-09-19T08:20:49.744Z,14.70
2022-09-19T08:23:19.048Z,14.70
2022-09-19T08:25:52.734Z,14.30
2022-09-19T08:28:23.398Z,14.20
2022-09-19T08:30:50.586Z,14.30
2022-09-19T08:33:19.766Z,14.30
2022-09-19T08:35:46.676Z,14.50
2022-09-19T08:38:14.807Z,14.50
2022-09-19T08:40:41.769Z,14.70
2022-09-19T08:43:23.379Z,14.90
2022-09-19T08:46:37.104Z,14.90
2022-09-19T08:49:22.053Z,14.90
2022-09-19T08:52:00.432Z,15.10
2022-09-19T08:54:33.346Z,15.20
2022-09-19T08:57:02.074Z,15.20
2022-09-19T08:59:36.244Z,15.20
2022-09-19T09:02:24.004Z,15.20
2022-09-19T09:04:51.603Z,15.30
2022-09-19T09:07:53.445Z,15.40
2022-09-19T09:10:31.393Z,15.30
2022-09-19T09:13:06.500Z,15.00
2022-09-19T09:15:52.560Z,14.80
2022-09-19T09:18:22.452Z,14.80
2022-09-19T09:21:19.663Z,14.90
2022-09-19T09:23:52.474Z,15.40
2022-09-19T09:26:24.198Z,15.40
2022-09-19T09:28:56.889Z,15.70
2022-09-19T09:31:30.134Z,15.30
2022-09-19T09:34:18.539Z,15.60
2022-09-19T09:36:56.456Z,15.40
2022-09-19T09:39:33.618Z,15.10
2022-09-19T09:42:05.409Z,15.20
2022-09-19T09:45:00.684Z,15.00
2022-09-19T09:47:45.237Z,15.20
2022-09-19T09:50:39.827Z,15.40
2022-09-19T09:53:18.678Z,15.30
2022-09-19T09:56:04.134Z,15.20
2022-09-19T09:59:07.417Z,15.50
2022-09-19T10:02:01.929Z,15.70
2022-09-19T10:04:54.096Z,15.80
2022-09-19T10:07:38.179Z,16.10
2022-09-19T10:10:19.369Z,16.40
2022-09-19T10:12:58.514Z,16.10
2022-09-19T10:15:30.266Z,16.10
2022-09-19T10:18:08.352Z,15.90
2022-09-19T10:20:50.564Z,15.90
2022-09-19T10:23:26.353Z,15.80
2022-09-19T10:26:16.102Z,15.80
2022-09-19T10:28:54.635Z,15.80
2022-09-19T10:31:41.137Z,15.70
2022-09-19T10:34:33.097Z,15.60
2022-09-19T10:37:09.268Z,15.70
2022-09-19T10:39:45.600Z,15.70
2022-09-19T10:42:42.450Z,16.20
2022-09-19T10:45:18.016Z,16.30
2022-09-19T10:47:45.282Z,16.50
2022-09-19T10:50:19.841Z,16.40
2022-09-19T10:52:52.403Z,16.20
2022-09-19T10:55:23.607Z,16.30
2022-09-19T10:57:59.741Z,16.50
2022-09-19T11:00:32.866Z,17.10
2022-09-19T11:03:16.579Z,16.90
2022-09-19T11:05:43.830Z,16.80
2022-09-19T11:08:26.623Z,16.70
2022-09-19T11:10:53.423Z,17.20
2022-09-19T11:13:23.427Z,17.20
2022-09-19T11:16:05.058Z,17.20
2022-09-19T11:18:44.259Z,16.80
2022-09-19T11:21:28.486Z,16.70
2022-09-19T11:24:31.005Z,16.70
2022-09-19T11:27:16.273Z,16.60
2022-09-19T11:30:14.460Z,16.70
2022-09-19T11:36:24.848Z,17.60
2022-09-19T11:41:47.159Z,16.80
2022-09-19T11:44:30.580Z,16.40
2022-09-19T11:47:39.439Z,14.60
2022-09-19T11:50:45.249Z,13.00
2022-09-19T11:53:33.714Z,12.80
2022-09-19T11:56:19.871Z,12.70
2022-09-19T11:59:14.764Z,12.70
2022-09-19T12:01:56.030Z,12.70
2022-09-19T12:04:43.944Z,12.80
2022-09-19T12:07:45.162Z,12.80
2022-09-19T12:10:36.762Z,12.80
2022-09-19T12:13:09.468Z,12.90
2022-09-19T12:15:38.746Z,13.00
2022-09-19T12:18:28.633Z,12.90
2022-09-19T12:21:01.643Z,12.90
2022-09-19T12:23:55.246Z,12.90
2022-09-19T12:26:27.563Z,13.00
2022-09-19T12:29:05.908Z,13.10
2022-09-19T12:31:38.035Z,13.20
2022-09-19T12:34:23.144Z,13.30
2022-09-19T12:36:59.250Z,13.40
2022-09-19T12:40:06.259Z,13.80
2022-09-19T12:42:51.166Z,14.00
2022-09-19T12:45:24.803Z,14.20
2022-09-19T12:48:05.477Z,14.10
2022-09-19T12:50:50.297Z,14.10
2022-09-19T12:53:35.797Z,14.00
2022-09-19T12:56:08.150Z,13.90
2022-09-19T12:58:45.030Z,13.90
2022-09-19T13:01:28.077Z,14.10
2022-09-19T13:04:26.514Z,14.10
2022-09-19T13:07:10.799Z,14.20
2022-09-19T13:10:08.032Z,14.40
2022-09-19T13:13:23.904Z,14.30
2022-09-19T13:16:19.193Z,14.40
2022-09-19T13:19:08.011Z,14.60
2022-09-19T13:21:59.506Z,14.60
2022-09-19T13:24:42.265Z,14.60
2022-09-19T13:27:10.939Z,14.80
2022-09-19T13:29:41.488Z,15.00
2022-09-19T13:32:54.662Z,15.20
2022-09-19T13:35:23.792Z,15.20
2022-09-19T13:38:00.898Z,15.00
2022-09-19T13:40:47.180Z,14.90
2022-09-19T13:43:30.321Z,14.60
2022-09-19T13:46:07.471Z,14.50
2022-09-19T13:48:54.006Z,14.40
2022-09-19T13:51:32.789Z,14.30
2022-09-19T13:54:21.203Z,14.30
2022-09-19T13:57:04.547Z,14.20
2022-09-19T13:59:35.314Z,14.20
2022-09-19T14:02:05.332Z,14.30
2022-09-19T14:04:54.275Z,14.30
2022-09-19T14:10:49.070Z,14.20
2022-09-19T14:13:30.537Z,14.50
2022-09-19T14:16:09.543Z,14.60
2022-09-19T14:18:42.082Z,14.40
2022-09-19T14:21:09.748Z,14.50
2022-09-19T14:23:42.536Z,14.50
2022-09-19T14:26:09.390Z,14.60
2022-09-19T14:29:13.672Z,14.70
2022-09-19T14:32:08.925Z,14.90
2022-09-19T14:34:52.450Z,14.90
2022-09-19T14:37:45.229Z,15.00
2022-09-19T14:40:28.178Z,15.10
2022-09-19T14:43:19.656Z,15.10
2022-09-19T14:46:08.147Z,15.20
2022-09-19T14:48:50.553Z,15.10
2022-09-19T14:51:45.143Z,15.10
2022-09-19T14:54:25.523Z,15.00
2022-09-19T14:57:11.087Z,15.00
2022-09-19T14:59:37.962Z,14.90
2022-09-19T15:02:19.569Z,15.00
2022-09-19T15:04:52.724Z,14.90
2022-09-19T15:07:27.554Z,14.80
2022-09-19T15:09:54.444Z,14.80
2022-09-19T15:12:25.977Z,14.70
2022-09-19T15:14:57.556Z,14.70
2022-09-19T15:17:33.723Z,14.60
2022-09-19T15:20:13.419Z,14.40
2022-09-19T15:22:59.166Z,14.40
2022-09-19T15:25:36.579Z,14.10
2022-09-19T15:28:22.600Z,13.90
2022-09-19T15:30:56.222Z,14.00
2022-09-19T15:33:24.048Z,13.70
2022-09-19T15:35:53.539Z,13.70
2022-09-19T15:38:32.367Z,13.60
2022-09-19T15:41:01.708Z,13.70
2022-09-19T15:43:30.212Z,13.60
2022-09-19T15:46:02.258Z,13.60
2022-09-19T15:48:34.042Z,13.60
2022-09-19T15:51:04.687Z,13.60
2022-09-19T15:53:43.074Z,13.50
2022-09-19T15:56:16.668Z,13.40
2022-09-19T15:58:47.298Z,13.40
2022-09-19T16:01:27.602Z,13.60
2022-09-19T16:04:02.669Z,13.70
2022-09-19T16:06:54.764Z,13.80
2022-09-19T16:09:32.519Z,13.80
2022-09-19T16:12:00.521Z,13.80
2022-09-19T16:14:31.843Z,13.60
2022-09-19T16:17:00.348Z,13.60
2022-09-19T16:19:32.940Z,13.50
2022-09-19T16:22:01.619Z,13.50
2022-09-19T16:24:31.042Z,13.50
2022-09-19T16:27:00.798Z,13.70
2022-09-19T16:29:30.855Z,13.70
2022-09-19T16:31:57.927Z,13.70
2022-09-19T16:34:30.955Z,13.70
2022-09-19T16:36:58.732Z,13.60
2022-09-19T16:39:42.767Z,13.60
2022-09-19T16:42:12.536Z,13.40
2022-09-19T16:44:54.219Z,13.40
2022-09-19T16:47:23.700Z,13.30
2022-09-19T16:49:52.456Z,13.20
2022-09-19T16:52:30.618Z,13.10
2022-09-19T16:55:03.216Z,13.00
2022-09-19T16:57:31.078Z,12.90
2022-09-19T16:59:58.155Z,12.90
2022-09-19T17:02:30.718Z,12.90
2022-09-19T17:05:00.816Z,12.90
2022-09-19T17:07:27.672Z,12.90
2022-09-19T17:09:54.539Z,12.80
2022-09-19T17:12:23.623Z,12.90
2022-09-19T17:14:51.790Z,12.80
2022-09-19T17:17:19.187Z,12.90
2022-09-19T17:19:46.939Z,12.80
2022-09-19T17:22:18.898Z,12.80
2022-09-19T17:24:47.154Z,12.70
2022-09-19T17:27:15.081Z,12.60
2022-09-19T17:29:42.393Z,12.60
2022-09-19T17:32:12.376Z,12.50
2022-09-19T17:34:39.191Z,12.50
2022-09-19T17:37:06.018Z,12.40
2022-09-19T17:39:33.140Z,12.30
2022-09-19T17:42:00.853Z,12.20
2022-09-19T17:44:28.094Z,12.20
2022-09-19T17:46:54.952Z,12.20
2022-09-19T17:49:21.834Z,12.20
2022-09-19T17:51:49.150Z,12.10
2022-09-19T17:54:16.679Z,12.10
2022-09-19T17:56:52.598Z,12.10
2022-09-19T17:59:21.584Z,12.20
2022-09-19T18:02:07.118Z,12.20
2022-09-19T18:04:34.322Z,12.20
2022-09-19T18:07:01.269Z,12.10
2022-09-19T18:09:28.208Z,12.10
2022-09-19T18:11:55.502Z,12.20
2022-09-19T18:14:23.004Z,12.20
2022-09-19T18:16:50.867Z,12.10
2022-09-19T18:19:17.661Z,12.10
2022-09-19T18:21:44.866Z,12.10
2022-09-19T18:24:12.066Z,12.10
2022-09-19T18:26:39.400Z,12.10
2022-09-19T18:29:08.266Z,12.00
2022-09-19T18:31:36.020Z,12.10
2022-09-19T18:34:03.915Z,12.10
2022-09-19T18:36:32.364Z,12.10
2022-09-19T18:38:59.219Z,12.10
2022-09-19T18:41:27.265Z,12.10
2022-09-19T18:43:54.536Z,12.10
2022-09-19T18:46:24.006Z,12.10
2022-09-19T18:48:53.155Z,12.10
2022-09-19T18:51:22.303Z,12.10
2022-09-19T18:53:51.363Z,12.10
2022-09-19T18:56:19.817Z,12.10
2022-09-19T18:58:54.010Z,12.10
2022-09-19T19:01:22.558Z,12.00
2022-09-19T19:03:55.890Z,12.10
2022-09-19T19:06:24.051Z,12.00
2022-09-19T19:08:52.465Z,11.90
2022-09-19T19:11:22.457Z,11.90
2022-09-19T19:13:49.961Z,11.80
2022-09-19T19:16:20.408Z,11.70
2022-09-19T19:18:53.021Z,11.60
2022-09-19T19:21:24.949Z,11.50
2022-09-19T19:23:57.641Z,11.50
2022-09-19T19:26:29.282Z,11.40
2022-09-19T19:28:56.098Z,11.30
2022-09-19T19:31:23.160Z,11.20
2022-09-19T19:33:50.095Z,11.20
2022-09-19T19:36:22.243Z,11.10
2022-09-19T19:38:50.516Z,11.10
2022-09-19T19:41:25.475Z,11.10
2022-09-19T19:43:54.505Z,11.10
2022-09-19T19:46:23.457Z,11.10
2022-09-19T19:48:52.984Z,11.10
2022-09-19T19:51:22.786Z,11.00
2022-09-19T19:53:50.604Z,11.00
2022-09-19T19:56:20.598Z,11.00
2022-09-19T19:58:48.800Z,11.00
2022-09-19T20:01:20.852Z,11.00
2022-09-19T20:04:05.040Z,10.90
2022-09-19T20:06:37.823Z,11.00
2022-09-19T20:09:06.406Z,11.00
2022-09-19T20:11:34.132Z,11.00
2022-09-19T20:14:04.179Z,11.00
2022-09-19T20:16:35.886Z,11.10
2022-09-19T20:19:04.450Z,11.00
2022-09-19T20:21:34.647Z,11.00
2022-09-19T20:24:03.245Z,11.00
2022-09-19T20:26:32.221Z,11.00
2022-09-19T20:29:00.935Z,11.10
2022-09-19T20:31:30.933Z,11.10
2022-09-19T20:33:57.973Z,11.20
2022-09-19T20:36:26.018Z,11.20
2022-09-19T20:38:56.799Z,11.40
2022-09-19T20:41:25.585Z,11.40
2022-09-19T20:43:53.813Z,11.50
2022-09-19T20:46:21.584Z,11.60
2022-09-19T20:48:48.912Z,11.60
2022-09-19T20:51:23.892Z,11.60
2022-09-19T20:53:54.768Z,11.60
2022-09-19T20:56:24.208Z,11.70
2022-09-19T20:59:01.255Z,11.70
2022-09-19T21:01:37.189Z,11.80
2022-09-19T21:04:05.744Z,11.80
2022-09-19T21:06:33.213Z,11.80
2022-09-19T21:09:02.182Z,11.80
2022-09-19T21:11:29.230Z,11.80
2022-09-19T21:13:58.218Z,11.90
2022-09-19T21:16:30.296Z,11.90
2022-09-19T21:18:58.904Z,11.80
2022-09-19T21:21:30.523Z,11.80
2022-09-19T21:23:57.768Z,11.70
2022-09-19T21:26:28.767Z,11.70
2022-09-19T21:28:57.868Z,11.70
2022-09-19T21:31:26.805Z,11.60
2022-09-19T21:33:55.376Z,11.60
2022-09-19T21:36:23.052Z,11.60
2022-09-19T21:38:54.041Z,11.50
2022-09-19T21:41:21.471Z,11.50
2022-09-19T21:43:48.543Z,11.50
2022-09-19T21:46:17.581Z,11.40
2022-09-19T21:48:46.213Z,11.40
2022-09-19T21:51:15.427Z,11.40
2022-09-19T21:53:45.080Z,11.40
2022-09-19T21:56:12.482Z,11.40
2022-09-19T21:58:39.781Z,11.40
2022-09-19T22:01:10.233Z,11.40
2022-09-19T22:03:37.151Z,11.40
2022-09-19T22:06:05.217Z,11.30
2022-09-19T22:08:32.594Z,11.30
2022-09-19T22:11:00.314Z,11.30
2022-09-19T22:13:28.356Z,11.40
2022-09-19T22:16:00.191Z,11.30
2022-09-19T22:18:28.037Z,11.30
2022-09-19T22:20:55.437Z,11.20
2022-09-19T22:23:23.009Z,11.20
2022-09-19T22:25:55.324Z,11.10
2022-09-19T22:28:22.152Z,11.10
2022-09-19T22:30:49.143Z,11.10
2022-09-19T22:33:16.411Z,11.10
2022-09-19T22:35:43.736Z,11.10
2022-09-19T22:38:10.626Z,11.10
2022-09-19T22:40:38.291Z,11.10
2022-09-19T22:43:05.383Z,11.20
2022-09-19T22:45:34.022Z,11.20
2022-09-19T22:48:01.097Z,11.30
2022-09-19T22:50:27.901Z,11.30
2022-09-19T22:52:54.724Z,11.30
2022-09-19T22:55:21.452Z,11.30
2022-09-19T22:57:51.592Z,11.40
2022-09-19T23:00:18.468Z,11.40
2022-09-19T23:02:45.580Z,11.40
2022-09-19T23:05:12.391Z,11.30
2022-09-19T23:07:39.782Z,11.30
2022-09-19T23:10:06.796Z,11.30
2022-09-19T23:12:33.797Z,11.30
2022-09-19T23:15:01.081Z,11.20
2022-09-19T23:17:27.831Z,11.20
2022-09-19T23:19:54.572Z,11.20
2022-09-19T23:22:21.307Z,11.10
2022-09-19T23:24:48.065Z,11.10
2022-09-19T23:27:14.876Z,11.10
2022-09-19T23:29:41.851Z,11.10
2022-09-19T23:32:08.751Z,11.00
2022-09-19T23:34:35.700Z,11.00
2022-09-19T23:37:02.568Z,11.00
2022-09-19T23:39:29.352Z,11.10
2022-09-19T23:41:56.226Z,11.00
2022-09-19T23:44:23.007Z,11.00
2022-09-19T23:46:49.836Z,10.90
2022-09-19T23:49:16.635Z,10.90
2022-09-19T23:51:43.411Z,10.90
2022-09-19T23:54:12.535Z,10.70
2022-09-19T23:56:39.350Z,10.70
2022-09-19T23:59:06.135Z,10.60
